createdAt,value
2016-11-01T00:00:50.545Z,1016.6
2016-11-01T00:01:50.731Z,1016.57
2016-11-01T00:02:50.513Z,1016.54
2016-11-01T00:03:50.495Z,1016.49
2016-11-01T00:04:50.480Z,1016.5
2016-11-01T00:05:50.465Z,1016.5
2016-11-01T00:06:50.448Z,1016.45
2016-11-01T00:07:50.432Z,1016.44
2016-11-01T00:08:50.417Z,1016.49
2016-11-01T00:09:50.397Z,1016.45
2016-11-01T00:10:50.381Z,1016.41
2016-11-01T00:11:50.367Z,1016.43
2016-11-01T00:12:50.351Z,1016.42
2016-11-01T00:13:50.340Z,1016.36
2016-11-01T00:14:50.315Z,1016.37
2016-11-01T00:15:50.299Z,1016.34
2016-11-01T00:16:50.284Z,1016.35
2016-11-01T00:17:50.267Z,1016.3
2016-11-01T00:18:50.251Z,1016.29
2016-11-01T00:19:50.233Z,1016.3
2016-11-01T00:20:50.217Z,1016.27
2016-11-01T00:21:50.199Z,1016.26
2016-11-01T00:22:50.187Z,1016.25
2016-11-01T00:23:50.167Z,1016.28
2016-11-01T00:24:50.149Z,1016.24
2016-11-01T00:25:50.133Z,1016.25
2016-11-01T00:26:50.118Z,1016.24
2016-11-01T00:27:50.102Z,1016.21
2016-11-01T00:28:50.087Z,1016.23
2016-11-01T00:29:50.069Z,1016.25
2016-11-01T00:30:50.052Z,1016.21
2016-11-01T00:31:50.036Z,1016.2
2016-11-01T00:33:02.755Z,1016.18
2016-11-01T00:33:50.003Z,1016.18
2016-11-01T00:34:49.987Z,1016.19
2016-11-01T00:35:49.982Z,1016.19
2016-11-01T00:36:49.953Z,1016.2
2016-11-01T00:37:49.937Z,1016.19
2016-11-01T00:38:49.920Z,1016.2
2016-11-01T00:39:49.903Z,1016.15
2016-11-01T00:40:49.889Z,1016.13
2016-11-01T00:41:49.871Z,1016.07
2016-11-01T00:42:49.856Z,1016.09
2016-11-01T00:43:49.842Z,1016.04
2016-11-01T00:44:49.824Z,1016.03
2016-11-01T00:45:49.808Z,1016.06
2016-11-01T00:46:49.791Z,1016.07
2016-11-01T00:47:49.773Z,1016.03
2016-11-01T00:48:49.809Z,1016.09
2016-11-01T00:49:49.741Z,1016.03
2016-11-01T00:50:49.724Z,1016.02
2016-11-01T00:51:49.706Z,1016.01
2016-11-01T00:52:49.691Z,1015.99
2016-11-01T00:53:49.673Z,1015.94
2016-11-01T00:54:49.657Z,1015.92
2016-11-01T00:55:49.691Z,1015.94
2016-11-01T00:56:49.625Z,1015.93
2016-11-01T00:57:49.608Z,1015.9
2016-11-01T00:58:49.590Z,1015.91
2016-11-01T00:59:49.575Z,1015.9
2016-11-01T01:00:49.557Z,1015.86
2016-11-01T01:01:49.542Z,1015.85
2016-11-01T01:02:49.525Z,1015.81
2016-11-01T01:03:49.511Z,1015.85
2016-11-01T01:04:49.491Z,1015.79
2016-11-01T01:05:49.478Z,1015.76
2016-11-01T01:06:49.461Z,1015.72
2016-11-01T01:07:49.447Z,1015.7
2016-11-01T01:08:49.430Z,1015.7
2016-11-01T01:09:49.409Z,1015.69
2016-11-01T01:10:49.394Z,1015.68
2016-11-01T01:11:49.378Z,1015.7
2016-11-01T01:12:49.362Z,1015.64
2016-11-01T01:13:49.345Z,1015.65
2016-11-01T01:14:49.327Z,1015.6
2016-11-01T01:15:49.312Z,1015.56
2016-11-01T01:16:49.297Z,1015.58
2016-11-01T01:17:49.278Z,1015.49
2016-11-01T01:18:49.262Z,1015.49
2016-11-01T01:19:49.244Z,1015.46
2016-11-01T01:20:49.226Z,1015.43
2016-11-01T01:21:49.213Z,1015.41
2016-11-01T01:22:49.197Z,1015.38
2016-11-01T01:23:49.178Z,1015.36
2016-11-01T01:24:49.164Z,1015.38
2016-11-01T01:25:49.145Z,1015.35
2016-11-01T01:26:49.126Z,1015.31
2016-11-01T01:27:49.109Z,1015.33
2016-11-01T01:28:49.093Z,1015.3
2016-11-01T01:29:49.079Z,1015.27
2016-11-01T01:30:49.060Z,1015.24
2016-11-01T01:31:49.044Z,1015.29
2016-11-01T01:32:49.027Z,1015.22
2016-11-01T01:33:49.010Z,1015.23
2016-11-01T01:34:48.994Z,1015.24
2016-11-01T01:35:48.978Z,1015.23
2016-11-01T01:36:48.961Z,1015.21
2016-11-01T01:37:48.945Z,1015.22
2016-11-01T01:38:48.927Z,1015.24
2016-11-01T01:39:48.910Z,1015.25
2016-11-01T01:40:48.894Z,1015.24
2016-11-01T01:41:48.877Z,1015.23
2016-11-01T01:42:48.860Z,1015.19
2016-11-01T01:43:48.846Z,1015.23
2016-11-01T01:44:48.827Z,1015.22
2016-11-01T01:45:48.810Z,1015.21
2016-11-01T01:46:48.795Z,1015.22
2016-11-01T01:47:48.784Z,1015.23
2016-11-01T01:48:48.761Z,1015.26
2016-11-01T01:49:48.744Z,1015.3
2016-11-01T01:50:48.730Z,1015.32
2016-11-01T01:51:48.715Z,1015.39
2016-11-01T01:52:48.695Z,1015.32
2016-11-01T01:53:48.677Z,1015.34
2016-11-01T01:54:48.662Z,1015.29
2016-11-01T01:55:48.644Z,1015.22
2016-11-01T01:56:48.628Z,1015.22
2016-11-01T01:57:48.613Z,1015.24
2016-11-01T01:58:48.597Z,1015.25
2016-11-01T01:59:48.577Z,1015.21
2016-11-01T02:00:48.562Z,1015.17
2016-11-01T02:01:48.747Z,1015.12
2016-11-01T02:02:48.531Z,1015.08
2016-11-01T02:03:48.513Z,1015.15
2016-11-01T02:04:48.496Z,1015.2
2016-11-01T02:05:48.481Z,1015.22
2016-11-01T02:06:48.463Z,1015.25
2016-11-01T02:07:48.447Z,1015.21
2016-11-01T02:08:48.429Z,1015.12
2016-11-01T02:09:48.413Z,1015.11
2016-11-01T02:10:48.398Z,1015.07
2016-11-01T02:11:48.380Z,1015.06
2016-11-01T02:12:48.363Z,1015.06
2016-11-01T02:13:48.348Z,1015.05
2016-11-01T02:14:48.330Z,1014.99
2016-11-01T02:15:48.315Z,1014.99
2016-11-01T02:16:48.297Z,1014.99
2016-11-01T02:17:48.280Z,1014.96
2016-11-01T02:18:48.265Z,1014.97
2016-11-01T02:19:48.248Z,1014.96
2016-11-01T02:20:48.231Z,1014.95
2016-11-01T02:21:48.214Z,1014.92
2016-11-01T02:22:48.199Z,1014.92
2016-11-01T02:23:48.181Z,1014.92
2016-11-01T02:24:48.166Z,1014.93
2016-11-01T02:25:48.148Z,1014.9
2016-11-01T02:26:48.131Z,1014.86
2016-11-01T02:27:48.125Z,1014.88
2016-11-01T02:28:48.104Z,1014.89
2016-11-01T02:29:48.082Z,1014.86
2016-11-01T02:30:48.066Z,1014.89
2016-11-01T02:31:48.047Z,1014.9
2016-11-01T02:32:48.030Z,1014.94
2016-11-01T02:33:48.013Z,1014.93
2016-11-01T02:34:47.998Z,1014.9
2016-11-01T02:35:47.981Z,1014.88
2016-11-01T02:36:47.966Z,1014.86
2016-11-01T02:37:47.947Z,1014.81
2016-11-01T02:38:47.932Z,1014.79
2016-11-01T02:39:47.915Z,1014.78
2016-11-01T02:40:47.899Z,1014.74
2016-11-01T02:41:47.880Z,1014.75
2016-11-01T02:42:47.867Z,1014.83
2016-11-01T02:43:47.847Z,1014.78
2016-11-01T02:44:47.831Z,1014.81
2016-11-01T02:45:47.815Z,1014.79
2016-11-01T02:46:47.798Z,1014.79
2016-11-01T02:47:47.781Z,1014.78
2016-11-01T02:48:47.765Z,1014.75
2016-11-01T02:49:47.748Z,1014.7
2016-11-01T02:50:47.731Z,1014.65
2016-11-01T02:51:47.715Z,1014.63
2016-11-01T02:52:47.698Z,1014.62
2016-11-01T02:53:47.681Z,1014.55
2016-11-01T02:54:47.664Z,1014.54
2016-11-01T02:55:47.649Z,1014.51
2016-11-01T02:56:47.630Z,1014.53
2016-11-01T02:57:47.616Z,1014.5
2016-11-01T02:58:47.597Z,1014.52
2016-11-01T02:59:47.581Z,1014.51
2016-11-01T03:00:47.564Z,1014.52
2016-11-01T03:01:47.548Z,1014.51
2016-11-01T03:02:47.531Z,1014.52
2016-11-01T03:03:47.516Z,1014.52
2016-11-01T03:04:47.498Z,1014.48
2016-11-01T03:05:47.480Z,1014.44
2016-11-01T03:06:47.465Z,1014.4
2016-11-01T03:07:47.447Z,1014.35
2016-11-01T03:08:47.430Z,1014.35
2016-11-01T03:09:47.415Z,1014.41
2016-11-01T03:10:47.398Z,1014.43
2016-11-01T03:11:47.380Z,1014.46
2016-11-01T03:12:47.363Z,1014.48
2016-11-01T03:13:47.348Z,1014.44
2016-11-01T03:14:47.331Z,1014.44
2016-11-01T03:15:47.314Z,1014.45
2016-11-01T03:16:47.296Z,1014.47
2016-11-01T03:17:47.281Z,1014.5
2016-11-01T03:18:47.264Z,1014.51
2016-11-01T03:19:47.247Z,1014.47
2016-11-01T03:20:47.230Z,1014.45
2016-11-01T03:21:47.215Z,1014.46
2016-11-01T03:22:47.195Z,1014.44
2016-11-01T03:23:47.179Z,1014.47
2016-11-01T03:24:47.162Z,1014.45
2016-11-01T03:25:47.147Z,1014.45
2016-11-01T03:26:47.128Z,1014.42
2016-11-01T03:27:47.112Z,1014.41
2016-11-01T03:28:47.095Z,1014.42
2016-11-01T03:29:47.080Z,1014.4
2016-11-01T03:30:47.062Z,1014.41
2016-11-01T03:31:47.044Z,1014.38
2016-11-01T03:32:47.028Z,1014.34
2016-11-01T03:33:47.010Z,1014.27
2016-11-01T03:34:46.994Z,1014.21
2016-11-01T03:35:46.977Z,1014.18
2016-11-01T03:36:46.959Z,1014.18
2016-11-01T03:37:46.943Z,1014.16
2016-11-01T03:38:46.926Z,1014.1
2016-11-01T03:39:46.912Z,1014.14
2016-11-01T03:40:46.892Z,1014.12
2016-11-01T03:41:46.875Z,1014.1
2016-11-01T03:42:46.859Z,1014.08
2016-11-01T03:43:46.844Z,1014.07
2016-11-01T03:44:46.825Z,1014.02
2016-11-01T03:45:46.810Z,1014.02
2016-11-01T03:46:46.791Z,1014.03
2016-11-01T03:47:46.776Z,1014.04
2016-11-01T03:48:46.760Z,1014.02
2016-11-01T03:49:46.740Z,1014
2016-11-01T03:50:46.725Z,1014.06
2016-11-01T03:51:46.708Z,1014.01
2016-11-01T03:52:46.690Z,1013.97
2016-11-01T03:53:46.673Z,1014.02
2016-11-01T03:54:46.656Z,1014.03
2016-11-01T03:55:46.640Z,1014.03
2016-11-01T03:56:46.622Z,1014.04
2016-11-01T03:57:46.605Z,1014
2016-11-01T03:58:46.587Z,1013.95
2016-11-01T03:59:46.570Z,1013.91
2016-11-01T04:00:46.555Z,1013.94
2016-11-01T04:01:46.740Z,1013.93
2016-11-01T04:02:46.521Z,1013.95
2016-11-01T04:03:46.503Z,1013.99
2016-11-01T04:04:46.486Z,1014.01
2016-11-01T04:05:46.470Z,1013.95
2016-11-01T04:06:46.453Z,1013.95
2016-11-01T04:07:46.434Z,1013.92
2016-11-01T04:08:46.419Z,1013.9
2016-11-01T04:09:46.401Z,1013.88
2016-11-01T04:10:46.384Z,1013.9
2016-11-01T04:11:46.371Z,1013.9
2016-11-01T04:12:46.351Z,1013.93
2016-11-01T04:13:46.333Z,1013.94
2016-11-01T04:14:46.318Z,1013.92
2016-11-01T04:15:46.302Z,1013.94
2016-11-01T04:16:46.283Z,1013.91
2016-11-01T04:17:46.268Z,1013.92
2016-11-01T04:18:46.251Z,1013.88
2016-11-01T04:19:46.241Z,1013.88
2016-11-01T04:20:46.216Z,1013.92
2016-11-01T04:21:46.199Z,1013.84
2016-11-01T04:22:46.181Z,1013.83
2016-11-01T04:23:46.169Z,1013.85
2016-11-01T04:24:46.149Z,1013.81
2016-11-01T04:25:46.132Z,1013.79
2016-11-01T04:26:46.116Z,1013.76
2016-11-01T04:27:46.100Z,1013.82
2016-11-01T04:28:46.081Z,1013.79
2016-11-01T04:29:46.065Z,1013.82
2016-11-01T04:30:46.051Z,1013.79
2016-11-01T04:31:46.032Z,1013.75
2016-11-01T04:32:46.014Z,1013.69
2016-11-01T04:33:45.998Z,1013.76
2016-11-01T04:34:45.980Z,1013.74
2016-11-01T04:35:45.965Z,1013.76
2016-11-01T04:36:45.972Z,1013.75
2016-11-01T04:37:45.931Z,1013.74
2016-11-01T04:38:45.914Z,1013.75
2016-11-01T04:39:45.900Z,1013.78
2016-11-01T04:40:45.882Z,1013.76
2016-11-01T04:41:45.864Z,1013.7
2016-11-01T04:42:45.849Z,1013.69
2016-11-01T04:43:45.829Z,1013.72
2016-11-01T04:44:45.815Z,1013.7
2016-11-01T04:45:45.798Z,1013.7
2016-11-01T04:46:45.781Z,1013.68
2016-11-01T04:47:45.764Z,1013.69
2016-11-01T04:48:45.748Z,1013.72
2016-11-01T04:49:45.732Z,1013.72
2016-11-01T04:50:45.718Z,1013.7
2016-11-01T04:51:45.696Z,1013.77
2016-11-01T04:52:45.681Z,1013.75
2016-11-01T04:53:45.664Z,1013.72
2016-11-01T04:54:45.646Z,1013.7
2016-11-01T04:55:45.633Z,1013.69
2016-11-01T04:56:45.613Z,1013.67
2016-11-01T04:57:45.599Z,1013.67
2016-11-01T04:58:45.580Z,1013.68
2016-11-01T04:59:45.561Z,1013.67
2016-11-01T05:00:45.549Z,1013.66
2016-11-01T05:01:45.537Z,1013.67
2016-11-01T05:02:45.514Z,1013.65
2016-11-01T05:03:45.497Z,1013.64
2016-11-01T05:04:45.480Z,1013.61
2016-11-01T05:05:45.461Z,1013.66
2016-11-01T05:06:45.451Z,1013.63
2016-11-01T05:07:45.427Z,1013.6
2016-11-01T05:08:45.415Z,1013.6
2016-11-01T05:09:45.400Z,1013.62
2016-11-01T05:10:45.381Z,1013.62
2016-11-01T05:11:45.362Z,1013.6
2016-11-01T05:12:45.348Z,1013.56
2016-11-01T05:13:45.328Z,1013.58
2016-11-01T05:14:45.313Z,1013.57
2016-11-01T05:15:45.294Z,1013.57
2016-11-01T05:16:45.277Z,1013.57
2016-11-01T05:17:45.260Z,1013.55
2016-11-01T05:18:45.244Z,1013.56
2016-11-01T05:19:45.227Z,1013.59
2016-11-01T05:20:45.208Z,1013.54
2016-11-01T05:21:45.192Z,1013.55
2016-11-01T05:22:45.176Z,1013.53
2016-11-01T05:23:45.157Z,1013.54
2016-11-01T05:24:45.141Z,1013.53
2016-11-01T05:25:45.124Z,1013.55
2016-11-01T05:26:45.107Z,1013.55
2016-11-01T05:27:45.090Z,1013.56
2016-11-01T05:28:45.121Z,1013.59
2016-11-01T05:29:45.055Z,1013.56
2016-11-01T05:30:45.037Z,1013.54
2016-11-01T05:31:45.021Z,1013.55
2016-11-01T05:32:45.003Z,1013.54
2016-11-01T05:33:44.985Z,1013.5
2016-11-01T05:34:44.967Z,1013.52
2016-11-01T05:35:44.951Z,1013.52
2016-11-01T05:36:44.935Z,1013.52
2016-11-01T05:37:44.918Z,1013.5
2016-11-01T05:38:44.899Z,1013.52
2016-11-01T05:39:44.881Z,1013.48
2016-11-01T05:40:44.866Z,1013.49
2016-11-01T05:41:44.848Z,1013.47
2016-11-01T05:42:44.831Z,1013.47
2016-11-01T05:43:44.814Z,1013.48
2016-11-01T05:44:44.797Z,1013.47
2016-11-01T05:45:44.777Z,1013.47
2016-11-01T05:46:44.762Z,1013.45
2016-11-01T05:47:44.744Z,1013.49
2016-11-01T05:48:44.728Z,1013.48
2016-11-01T05:49:44.709Z,1013.48
2016-11-01T05:50:44.693Z,1013.48
2016-11-01T05:51:44.675Z,1013.46
2016-11-01T05:52:44.658Z,1013.44
2016-11-01T05:53:44.639Z,1013.41
2016-11-01T05:54:44.623Z,1013.36
2016-11-01T05:55:44.606Z,1013.36
2016-11-01T05:56:44.588Z,1013.43
2016-11-01T05:57:44.571Z,1013.45
2016-11-01T05:58:44.553Z,1013.37
2016-11-01T05:59:44.536Z,1013.4
2016-11-01T06:00:44.519Z,1013.38
2016-11-01T06:01:44.706Z,1013.4
2016-11-01T06:02:44.485Z,1013.4
2016-11-01T06:03:44.467Z,1013.43
2016-11-01T06:04:44.449Z,1013.43
2016-11-01T06:05:44.434Z,1013.4
2016-11-01T06:06:44.415Z,1013.38
2016-11-01T06:07:44.396Z,1013.41
2016-11-01T06:08:44.384Z,1013.39
2016-11-01T06:09:44.361Z,1013.4
2016-11-01T06:10:44.346Z,1013.39
2016-11-01T06:11:44.399Z,1013.35
2016-11-01T06:12:44.310Z,1013.32
2016-11-01T06:13:44.294Z,1013.36
2016-11-01T06:14:44.324Z,1013.32
2016-11-01T06:15:44.258Z,1013.35
2016-11-01T06:16:44.238Z,1013.34
2016-11-01T06:17:44.222Z,1013.37
2016-11-01T06:18:44.203Z,1013.41
2016-11-01T06:19:44.187Z,1013.39
2016-11-01T06:20:44.169Z,1013.39
2016-11-01T06:21:44.151Z,1013.41
2016-11-01T06:22:44.133Z,1013.41
2016-11-01T06:23:44.114Z,1013.44
2016-11-01T06:24:44.119Z,1013.38
2016-11-01T06:25:44.080Z,1013.37
2016-11-01T06:26:44.061Z,1013.37
2016-11-01T06:27:44.044Z,1013.35
2016-11-01T06:28:44.028Z,1013.37
2016-11-01T06:29:44.011Z,1013.37
2016-11-01T06:30:43.991Z,1013.39
2016-11-01T06:31:43.974Z,1013.4
2016-11-01T06:32:43.957Z,1013.39
2016-11-01T06:33:43.939Z,1013.38
2016-11-01T06:34:43.919Z,1013.41
2016-11-01T06:35:43.903Z,1013.38
2016-11-01T06:36:43.885Z,1013.39
2016-11-01T06:37:43.867Z,1013.38
2016-11-01T06:38:43.849Z,1013.39
2016-11-01T06:39:43.836Z,1013.4
2016-11-01T06:40:43.815Z,1013.41
2016-11-01T06:41:43.796Z,1013.45
2016-11-01T06:42:43.781Z,1013.44
2016-11-01T06:43:43.762Z,1013.43
2016-11-01T06:44:43.743Z,1013.45
2016-11-01T06:45:43.729Z,1013.43
2016-11-01T06:46:43.708Z,1013.4
2016-11-01T06:47:43.691Z,1013.44
2016-11-01T06:48:43.672Z,1013.43
2016-11-01T06:49:43.655Z,1013.41
2016-11-01T06:50:43.638Z,1013.43
2016-11-01T06:51:43.622Z,1013.39
2016-11-01T06:52:43.602Z,1013.4
2016-11-01T06:53:43.584Z,1013.36
2016-11-01T06:54:43.567Z,1013.33
2016-11-01T06:55:43.548Z,1013.28
2016-11-01T06:56:43.530Z,1013.27
2016-11-01T06:57:43.516Z,1013.3
2016-11-01T06:58:43.501Z,1013.29
2016-11-01T06:59:43.477Z,1013.25
2016-11-01T07:00:43.462Z,1013.23
2016-11-01T07:01:43.443Z,1013.24
2016-11-01T07:02:43.426Z,1013.22
2016-11-01T07:03:43.407Z,1013.24
2016-11-01T07:04:43.390Z,1013.22
2016-11-01T07:05:43.372Z,1013.24
2016-11-01T07:06:43.354Z,1013.21
2016-11-01T07:07:43.336Z,1013.21
2016-11-01T07:08:43.321Z,1013.19
2016-11-01T07:09:43.301Z,1013.17
2016-11-01T07:10:43.298Z,1013.16
2016-11-01T07:11:43.268Z,1013.14
2016-11-01T07:12:43.250Z,1013.08
2016-11-01T07:13:43.233Z,1013.09
2016-11-01T07:14:43.215Z,1013.12
2016-11-01T07:15:43.199Z,1013.1
2016-11-01T07:16:43.182Z,1013.13
2016-11-01T07:17:43.162Z,1013.09
2016-11-01T07:18:43.150Z,1013.13
2016-11-01T07:19:43.129Z,1013.14
2016-11-01T07:20:43.113Z,1013.13
2016-11-01T07:21:43.095Z,1013.14
2016-11-01T07:22:43.078Z,1013.18
2016-11-01T07:23:43.061Z,1013.17
2016-11-01T07:24:43.043Z,1013.13
2016-11-01T07:25:43.026Z,1013.12
2016-11-01T07:26:43.008Z,1013.07
2016-11-01T07:27:42.991Z,1013.05
2016-11-01T07:28:42.978Z,1013.05
2016-11-01T07:29:42.956Z,1013.06
2016-11-01T07:30:42.942Z,1013.06
2016-11-01T07:31:42.923Z,1013.05
2016-11-01T07:32:42.905Z,1013.01
2016-11-01T07:33:42.892Z,1013.01
2016-11-01T07:34:42.874Z,1012.97
2016-11-01T07:35:42.854Z,1012.95
2016-11-01T07:36:42.838Z,1012.94
2016-11-01T07:37:42.824Z,1012.94
2016-11-01T07:38:42.805Z,1012.93
2016-11-01T07:39:42.787Z,1012.9
2016-11-01T07:40:42.770Z,1012.88
2016-11-01T07:41:42.755Z,1012.91
2016-11-01T07:42:42.787Z,1012.9
2016-11-01T07:43:42.719Z,1012.91
2016-11-01T07:44:42.703Z,1012.9
2016-11-01T07:45:42.690Z,1012.89
2016-11-01T07:46:42.670Z,1012.87
2016-11-01T07:47:42.652Z,1012.87
2016-11-01T07:48:42.643Z,1012.85
2016-11-01T07:49:42.622Z,1012.9
2016-11-01T07:50:42.605Z,1012.9
2016-11-01T07:51:42.588Z,1012.9
2016-11-01T07:52:42.571Z,1012.88
2016-11-01T07:53:42.563Z,1012.82
2016-11-01T07:54:42.539Z,1012.85
2016-11-01T07:55:42.524Z,1012.83
2016-11-01T07:56:42.559Z,1012.82
2016-11-01T07:57:42.491Z,1012.81
2016-11-01T07:58:42.476Z,1012.84
2016-11-01T07:59:42.458Z,1012.77
2016-11-01T08:00:42.446Z,1012.79
2016-11-01T08:01:42.636Z,1012.78
2016-11-01T08:02:42.409Z,1012.78
2016-11-01T08:03:42.394Z,1012.76
2016-11-01T08:04:42.378Z,1012.77
2016-11-01T08:05:42.362Z,1012.75
2016-11-01T08:06:42.364Z,1012.81
2016-11-01T08:07:42.391Z,1012.82
2016-11-01T08:08:42.315Z,1012.81
2016-11-01T08:09:42.301Z,1012.82
2016-11-01T08:10:42.283Z,1012.86
2016-11-01T08:11:42.267Z,1012.86
2016-11-01T08:12:42.251Z,1012.86
2016-11-01T08:13:42.234Z,1012.86
2016-11-01T08:14:42.220Z,1012.9
2016-11-01T08:15:42.204Z,1012.92
2016-11-01T08:16:42.188Z,1012.97
2016-11-01T08:17:42.172Z,1012.99
2016-11-01T08:18:42.157Z,1013.03
2016-11-01T08:19:42.145Z,1013.06
2016-11-01T08:20:42.180Z,1013.04
2016-11-01T08:21:42.112Z,1013.02
2016-11-01T08:22:42.096Z,1013.01
2016-11-01T08:23:42.080Z,1012.93
2016-11-01T08:24:42.066Z,1012.91
2016-11-01T08:25:42.049Z,1012.92
2016-11-01T08:26:42.033Z,1012.89
2016-11-01T08:27:42.018Z,1012.86
2016-11-01T08:28:42.002Z,1012.84
2016-11-01T08:29:41.988Z,1012.86
2016-11-01T08:30:41.973Z,1012.85
2016-11-01T08:31:41.961Z,1012.88
2016-11-01T08:32:41.952Z,1012.89
2016-11-01T08:33:41.926Z,1012.88
2016-11-01T08:34:41.927Z,1012.86
2016-11-01T08:35:41.898Z,1012.79
2016-11-01T08:36:41.882Z,1012.78
2016-11-01T08:37:41.877Z,1012.74
2016-11-01T08:38:41.851Z,1012.68
2016-11-01T08:39:41.836Z,1012.69
2016-11-01T08:40:41.828Z,1012.68
2016-11-01T08:41:41.808Z,1012.63
2016-11-01T08:42:41.819Z,1012.61
2016-11-01T08:43:41.776Z,1012.66
2016-11-01T08:44:41.763Z,1012.68
2016-11-01T08:45:41.747Z,1012.71
2016-11-01T08:46:41.732Z,1012.69
2016-11-01T08:47:41.719Z,1012.76
2016-11-01T08:48:41.715Z,1012.76
2016-11-01T08:49:41.690Z,1012.78
2016-11-01T08:50:41.765Z,1012.71
2016-11-01T08:51:41.668Z,1012.71
2016-11-01T08:52:41.648Z,1012.68
2016-11-01T08:53:41.636Z,1012.68
2016-11-01T08:54:41.622Z,1012.63
2016-11-01T08:55:41.604Z,1012.71
2016-11-01T08:56:41.590Z,1012.68
2016-11-01T08:57:41.576Z,1012.67
2016-11-01T08:58:41.566Z,1012.68
2016-11-01T08:59:41.556Z,1012.65
2016-11-01T09:00:41.535Z,1012.69
2016-11-01T09:01:41.520Z,1012.71
2016-11-01T09:02:41.508Z,1012.71
2016-11-01T09:03:41.495Z,1012.7
2016-11-01T09:04:41.478Z,1012.66
2016-11-01T09:05:41.467Z,1012.64
2016-11-01T09:06:41.450Z,1012.62
2016-11-01T09:07:41.436Z,1012.63
2016-11-01T09:08:41.424Z,1012.65
2016-11-01T09:09:41.409Z,1012.66
2016-11-01T09:10:41.394Z,1012.59
2016-11-01T09:11:41.380Z,1012.61
2016-11-01T09:12:41.369Z,1012.57
2016-11-01T09:13:41.354Z,1012.65
2016-11-01T09:14:41.340Z,1012.6
2016-11-01T09:15:41.327Z,1012.61
2016-11-01T09:16:41.315Z,1012.56
2016-11-01T09:17:41.402Z,1012.49
2016-11-01T09:18:41.283Z,1012.44
2016-11-01T09:19:41.271Z,1012.43
2016-11-01T09:20:41.259Z,1012.44
2016-11-01T09:21:41.244Z,1012.44
2016-11-01T09:22:41.332Z,1012.45
2016-11-01T09:23:41.218Z,1012.44
2016-11-01T09:24:41.204Z,1012.42
2016-11-01T09:25:41.190Z,1012.47
2016-11-01T09:26:41.206Z,1012.47
2016-11-01T09:27:41.164Z,1012.51
2016-11-01T09:28:41.161Z,1012.52
2016-11-01T09:29:41.146Z,1012.49
2016-11-01T09:30:41.123Z,1012.54
2016-11-01T09:31:41.112Z,1012.48
2016-11-01T09:32:41.146Z,1012.5
2016-11-01T09:33:41.083Z,1012.48
2016-11-01T09:34:41.071Z,1012.45
2016-11-01T09:35:41.058Z,1012.41
2016-11-01T09:36:41.043Z,1012.44
2016-11-01T09:37:41.030Z,1012.47
2016-11-01T09:38:41.018Z,1012.5
2016-11-01T09:39:41.007Z,1012.49
2016-11-01T09:40:40.992Z,1012.47
2016-11-01T09:41:40.978Z,1012.45
2016-11-01T09:42:40.966Z,1012.43
2016-11-01T09:43:40.953Z,1012.4
2016-11-01T09:44:40.940Z,1012.34
2016-11-01T09:45:40.927Z,1012.3
2016-11-01T09:46:40.914Z,1012.29
2016-11-01T09:47:40.901Z,1012.22
2016-11-01T09:48:40.888Z,1012.2
2016-11-01T09:49:40.875Z,1012.25
2016-11-01T09:50:40.861Z,1012.19
2016-11-01T09:51:40.851Z,1012.16
2016-11-01T09:52:40.837Z,1012.13
2016-11-01T09:53:40.830Z,1012.1
2016-11-01T09:54:40.812Z,1012.12
2016-11-01T09:55:40.800Z,1012.14
2016-11-01T09:56:40.787Z,1012.2
2016-11-01T09:57:40.776Z,1012.26
2016-11-01T09:58:40.763Z,1012.32
2016-11-01T09:59:40.754Z,1012.34
2016-11-01T10:00:40.741Z,1012.34
2016-11-01T10:01:40.725Z,1012.23
2016-11-01T10:02:40.715Z,1012.23
2016-11-01T10:03:40.704Z,1012.18
2016-11-01T10:04:40.693Z,1012.22
2016-11-01T10:05:40.729Z,1012.22
2016-11-01T10:06:40.666Z,1012.25
2016-11-01T10:07:40.653Z,1012.27
2016-11-01T10:08:40.672Z,1012.3
2016-11-01T10:09:40.635Z,1012.3
2016-11-01T10:10:40.618Z,1012.32
2016-11-01T10:11:40.607Z,1012.32
2016-11-01T10:12:40.592Z,1012.32
2016-11-01T10:13:40.586Z,1012.31
2016-11-01T10:14:40.570Z,1012.32
2016-11-01T10:15:40.558Z,1012.38
2016-11-01T10:16:40.547Z,1012.39
2016-11-01T10:17:40.538Z,1012.33
2016-11-01T10:18:40.527Z,1012.32
2016-11-01T10:19:40.513Z,1012.3
2016-11-01T10:20:40.500Z,1012.31
2016-11-01T10:21:40.486Z,1012.33
2016-11-01T10:22:40.476Z,1012.31
2016-11-01T10:23:40.463Z,1012.37
2016-11-01T10:24:40.464Z,1012.32
2016-11-01T10:25:40.443Z,1012.28
2016-11-01T10:26:40.429Z,1012.29
2016-11-01T10:27:40.416Z,1012.28
2016-11-01T10:28:40.409Z,1012.24
2016-11-01T10:29:40.393Z,1012.23
2016-11-01T10:30:40.382Z,1012.21
2016-11-01T10:31:40.374Z,1012.16
2016-11-01T10:32:40.360Z,1012.1
2016-11-01T10:33:40.348Z,1012.08
2016-11-01T10:34:40.338Z,1012.03
2016-11-01T10:35:40.325Z,1012.09
2016-11-01T10:36:40.315Z,1012.03
2016-11-01T10:37:40.305Z,1012.02
2016-11-01T10:38:40.293Z,1012.02
2016-11-01T10:39:40.283Z,1012.02
2016-11-01T10:40:40.270Z,1011.95
2016-11-01T10:41:40.258Z,1011.99
2016-11-01T10:42:40.249Z,1012
2016-11-01T10:43:40.238Z,1012.03
2016-11-01T10:44:40.226Z,1012.03
2016-11-01T10:45:40.219Z,1011.97
2016-11-01T10:46:40.204Z,1011.96
2016-11-01T10:47:40.196Z,1011.93
2016-11-01T10:48:40.182Z,1011.88
2016-11-01T10:49:40.174Z,1011.84
2016-11-01T10:50:40.161Z,1011.86
2016-11-01T10:51:40.151Z,1011.86
2016-11-01T10:52:40.140Z,1011.85
2016-11-01T10:53:40.130Z,1011.85
2016-11-01T10:54:40.118Z,1011.85
2016-11-01T10:55:40.109Z,1011.85
2016-11-01T10:56:40.098Z,1011.84
2016-11-01T10:57:40.091Z,1011.79
2016-11-01T10:58:40.079Z,1011.76
2016-11-01T10:59:40.070Z,1011.69
2016-11-01T11:00:40.059Z,1011.66
2016-11-01T11:01:40.048Z,1011.55
2016-11-01T11:02:40.037Z,1011.53
2016-11-01T11:03:40.030Z,1011.52
2016-11-01T11:04:40.015Z,1011.52
2016-11-01T11:05:40.005Z,1011.48
2016-11-01T11:06:39.995Z,1011.55
2016-11-01T11:07:39.986Z,1011.57
2016-11-01T11:08:39.975Z,1011.55
2016-11-01T11:09:39.964Z,1011.54
2016-11-01T11:10:39.957Z,1011.5
2016-11-01T11:11:39.944Z,1011.48
2016-11-01T11:12:39.934Z,1011.51
2016-11-01T11:13:39.922Z,1011.44
2016-11-01T11:14:39.915Z,1011.43
2016-11-01T11:15:39.903Z,1011.38
2016-11-01T11:16:39.894Z,1011.37
2016-11-01T11:17:39.884Z,1011.37
2016-11-01T11:18:39.873Z,1011.33
2016-11-01T11:19:39.862Z,1011.26
2016-11-01T11:20:39.855Z,1011.24
2016-11-01T11:21:39.844Z,1011.18
2016-11-01T11:22:39.834Z,1011.2
2016-11-01T11:23:39.823Z,1011.19
2016-11-01T11:24:39.814Z,1011.23
2016-11-01T11:25:39.802Z,1011.16
2016-11-01T11:26:39.793Z,1011.13
2016-11-01T11:27:39.785Z,1011.14
2016-11-01T11:28:39.774Z,1011.16
2016-11-01T11:29:39.769Z,1011.17
2016-11-01T11:30:39.754Z,1011.12
2016-11-01T11:31:39.743Z,1011.13
2016-11-01T11:32:39.739Z,1011.13
2016-11-01T11:33:39.726Z,1011.14
2016-11-01T11:34:39.716Z,1011.16
2016-11-01T11:35:39.712Z,1011.2
2016-11-01T11:36:39.696Z,1011.23
2016-11-01T11:37:39.686Z,1011.27
2016-11-01T11:38:39.678Z,1011.25
2016-11-01T11:39:39.670Z,1011.19
2016-11-01T11:40:39.659Z,1011.11
2016-11-01T11:41:39.657Z,1011.13
2016-11-01T11:42:39.639Z,1011.09
2016-11-01T11:43:39.629Z,1011.09
2016-11-01T11:44:39.624Z,1011.06
2016-11-01T11:45:39.611Z,1011.08
2016-11-01T11:46:39.603Z,1011.12
2016-11-01T11:47:39.593Z,1011.15
2016-11-01T11:48:39.587Z,1011.17
2016-11-01T11:49:39.577Z,1011.14
2016-11-01T11:50:39.566Z,1011.09
2016-11-01T11:51:39.563Z,1011.06
2016-11-01T11:52:39.550Z,1011.04
2016-11-01T11:53:39.540Z,1011.04
2016-11-01T11:54:39.531Z,1010.98
2016-11-01T11:55:39.524Z,1011.03
2016-11-01T11:56:39.517Z,1010.97
2016-11-01T11:57:39.518Z,1010.9
2016-11-01T11:58:39.498Z,1010.91
2016-11-01T11:59:39.490Z,1010.91
2016-11-01T12:00:39.483Z,1010.93
2016-11-01T12:01:39.474Z,1010.9
2016-11-01T12:02:39.465Z,1010.95
2016-11-01T12:03:39.457Z,1010.93
2016-11-01T12:04:39.452Z,1010.97
2016-11-01T12:05:39.443Z,1010.98
2016-11-01T12:06:39.431Z,1010.94
2016-11-01T12:07:39.426Z,1010.97
2016-11-01T12:08:39.416Z,1011